Time,TemperatureF,DewpointF,PressureIn,WindDirection,WindDirectionDegrees,WindSpeedMPH,WindSpeedGustMPH,Humidity,HourlyPrecipIn,Conditions,Clouds,dailyrainin,SoftwareType,DateUTC
2013-05-27 00:01:00,59.7,44.4,30.17,West,269,0.0,0.0,57,0.00,,,0.00,WUHU21623XXSP,2013-05-27 04:01:00,
2013-05-27 00:06:00,59.5,44.3,30.17,NNE,22,0.0,0.0,57,0.00,,,0.00,WUHU21623XXSP,2013-05-27 04:06:00,
2013-05-27 00:08:00,59.4,44.1,30.17,NNE,22,0.0,0.0,57,0.00,,,0.00,WUHU21623XXSP,2013-05-27 04:08:00,
2013-05-27 00:10:00,59.4,44.5,30.17,ENE,67,0.0,0.0,58,0.00,,,0.00,WUHU21623XXSP,2013-05-27 04:10:00,
2013-05-27 00:12:00,59.2,44.4,30.17,ENE,67,0.0,0.0,58,0.00,,,0.00,WUHU21623XXSP,2013-05-27 04:12:00,
2013-05-27 00:19:00,59.0,44.4,30.17,ENE,67,0.0,0.0,58,0.00,,,0.00,WUHU21623XXSP,2013-05-27 04:19:00,
2013-05-27 00:25:00,59.0,44.2,30.17,ESE,112,0.0,0.0,58,0.00,,,0.00,WUHU21623XXSP,2013-05-27 04:25:00,
2013-05-27 00:32:00,58.8,44.0,30.17,ESE,112,0.0,0.0,58,0.00,,,0.00,WUHU21623XXSP,2013-05-27 04:32:00,
2013-05-27 00:38:00,58.8,44.0,30.17,ESE,112,0.0,0.0,58,0.00,,,0.00,WUHU21623XXSP,2013-05-27 04:38:00,
2013-05-27 00:45:00,58.8,44.0,30.17,ESE,112,0.0,0.0,58,0.00,,,0.00,WUHU21623XXSP,2013-05-27 04:45:00,
2013-05-27 00:51:00,58.8,44.0,30.17,ESE,112,0.0,0.0,58,0.00,,,0.00,WUHU21623XXSP,2013-05-27 04:51:00,
2013-05-27 00:57:00,58.6,44.0,30.18,SE,134,0.0,0.0,58,0.00,,,0.00,WUHU21623XXSP,2013-05-27 04:57:00,
2013-05-27 01:04:00,58.6,44.3,30.17,SSE,157,0.0,0.0,59,0.00,,,0.00,WUHU21623XXSP,2013-05-27 05:04:00,
2013-05-27 01:10:00,58.3,44.0,30.17,SSE,157,0.0,0.0,59,0.00,,,0.00,WUHU21623XXSP,2013-05-27 05:10:00,
2013-05-27 01:17:00,58.1,43.9,30.18,SSE,157,0.0,0.0,59,0.00,,,0.00,WUHU21623XXSP,2013-05-27 05:17:00,
2013-05-27 01:23:00,57.9,43.7,30.17,SE,134,0.0,0.0,59,0.00,,,0.00,WUHU21623XXSP,2013-05-27 05:23:00,
2013-05-27 01:30:00,57.9,43.7,30.17,SE,134,0.0,0.0,59,0.00,,,0.00,WUHU21623XXSP,2013-05-27 05:30:00,
2013-05-27 01:36:00,57.7,44.0,30.18,SSE,157,0.0,0.0,60,0.00,,,0.00,WUHU21623XXSP,2013-05-27 05:36:00,
2013-05-27 01:42:00,57.6,43.8,30.18,SSW,202,0.0,0.0,60,0.00,,,0.00,WUHU21623XXSP,2013-05-27 05:42:00,
2013-05-27 01:49:00,57.6,43.8,30.17,WNW,292,0.0,0.0,60,0.00,,,0.00,WUHU21623XXSP,2013-05-27 05:49:00,
2013-05-27 01:55:00,57.4,43.7,30.17,WNW,292,0.0,0.0,60,0.00,,,0.00,WUHU21623XXSP,2013-05-27 05:55:00,
2013-05-27 02:01:00,57.4,43.7,30.17,West,269,0.0,0.0,60,0.00,,,0.00,WUHU21623XXSP,2013-05-27 06:01:00,
2013-05-27 02:08:00,57.4,43.7,30.18,West,269,0.0,0.0,60,0.00,,,0.00,WUHU21623XXSP,2013-05-27 06:08:00,
2013-05-27 02:15:00,57.4,43.7,30.17,West,269,0.0,0.0,60,0.00,,,0.00,WUHU21623XXSP,2013-05-27 06:15:00,
2013-05-27 02:21:00,57.2,43.5,30.17,West,269,0.0,0.0,60,0.00,,,0.00,WUHU21623XXSP,2013-05-27 06:21:00,
2013-05-27 02:27:00,57.0,43.7,30.17,West,269,0.0,0.0,61,0.00,,,0.00,WUHU21623XXSP,2013-05-27 06:27:00,
2013-05-27 02:34:00,57.0,43.7,30.18,West,269,0.0,0.0,61,0.00,,,0.00,WUHU21623XXSP,2013-05-27 06:34:00,
2013-05-27 02:40:00,57.0,43.7,30.18,WNW,292,0.0,0.0,61,0.00,,,0.00,WUHU21623XXSP,2013-05-27 06:40:00,
2013-05-27 02:47:00,56.8,43.6,30.18,West,269,0.0,0.0,61,0.00,,,0.00,WUHU21623XXSP,2013-05-27 06:47:00,
2013-05-27 02:53:00,56.8,44.0,30.18,West,269,0.0,0.0,62,0.00,,,0.00,WUHU21623XXSP,2013-05-27 06:53:00,
2013-05-27 03:10:00,56.5,43.6,30.18,SSE,157,0.0,0.0,62,0.00,,,0.00,WUHU21623XXSP,2013-05-27 07:10:00,
2013-05-27 03:17:00,56.3,43.4,30.19,SSE,157,0.0,0.0,62,0.00,,,0.00,WUHU21623XXSP,2013-05-27 07:17:00,
2013-05-27 03:23:00,56.1,43.3,30.18,SSE,157,0.0,0.0,62,0.00,,,0.00,WUHU21623XXSP,2013-05-27 07:23:00,
2013-05-27 03:30:00,55.9,43.5,30.18,SW,224,0.0,0.0,63,0.00,,,0.00,WUHU21623XXSP,2013-05-27 07:30:00,
2013-05-27 03:36:00,55.9,43.5,30.18,SW,224,0.0,0.0,63,0.00,,,0.00,WUHU21623XXSP,2013-05-27 07:36:00,
2013-05-27 03:43:00,55.9,43.5,30.18,West,269,0.0,0.0,63,0.00,,,0.00,WUHU21623XXSP,2013-05-27 07:43:00,
2013-05-27 03:49:00,55.9,43.5,30.18,West,269,0.0,0.0,63,0.00,,,0.00,WUHU21623XXSP,2013-05-27 07:49:00,
2013-05-27 03:55:00,55.8,43.3,30.18,West,269,0.0,0.0,63,0.00,,,0.00,WUHU21623XXSP,2013-05-27 07:55:00,
2013-05-27 04:01:00,55.8,43.3,30.18,West,269,0.0,0.0,63,0.00,,,0.00,WUHU21623XXSP,2013-05-27 08:01:00,
2013-05-27 04:06:00,55.6,43.1,30.18,SW,224,0.0,0.0,63,0.00,,,0.00,WUHU21623XXSP,2013-05-27 08:06:00,
2013-05-27 04:13:00,55.6,43.1,30.18,WSW,247,0.0,0.0,63,0.00,,,0.00,WUHU21623XXSP,2013-05-27 08:13:00,
2013-05-27 04:19:00,55.6,43.1,30.18,SSW,202,0.0,0.0,63,0.00,,,0.00,WUHU21623XXSP,2013-05-27 08:19:00,
2013-05-27 04:26:00,55.4,43.0,30.18,SW,224,0.0,0.0,63,0.00,,,0.00,WUHU21623XXSP,2013-05-27 08:26:00,
2013-05-27 04:32:00,55.6,43.1,30.18,SW,224,0.0,0.0,63,0.00,,,0.00,WUHU21623XXSP,2013-05-27 08:32:00,
2013-05-27 04:38:00,55.6,43.1,30.18,WSW,247,0.0,0.0,63,0.00,,,0.00,WUHU21623XXSP,2013-05-27 08:38:00,
2013-05-27 04:45:00,55.6,43.1,30.19,WSW,247,0.0,0.0,63,0.00,,,0.00,WUHU21623XXSP,2013-05-27 08:45:00,
2013-05-27 04:51:00,55.6,43.5,30.19,WSW,247,0.0,0.0,64,0.00,,,0.00,WUHU21623XXSP,2013-05-27 08:51:00,
2013-05-27 04:58:00,55.4,43.4,30.18,WSW,247,0.0,0.0,64,0.00,,,0.00,WUHU21623XXSP,2013-05-27 08:58:00,
2013-05-27 05:03:00,55.2,43.2,30.19,WSW,247,0.0,0.0,64,0.00,,,0.00,WUHU21623XXSP,2013-05-27 09:03:00,
2013-05-27 05:09:00,55.2,43.2,30.19,WSW,247,0.0,0.0,64,0.00,,,0.00,WUHU21623XXSP,2013-05-27 09:09:00,
2013-05-27 05:15:00,55.2,43.2,30.19,WSW,247,0.0,0.0,64,0.00,,,0.00,WUHU21623XXSP,2013-05-27 09:15:00,
2013-05-27 05:21:00,55.2,43.6,30.20,WSW,247,0.0,0.0,65,0.00,,,0.00,WUHU21623XXSP,2013-05-27 09:21:00,
2013-05-27 05:28:00,55.2,43.6,30.20,WSW,247,0.0,0.0,65,0.00,,,0.00,WUHU21623XXSP,2013-05-27 09:28:00,
2013-05-27 05:34:00,55.2,43.6,30.20,SW,224,0.0,0.0,65,0.00,,,0.00,WUHU21623XXSP,2013-05-27 09:34:00,
2013-05-27 05:41:00,55.0,43.4,30.20,WSW,247,0.0,0.0,65,0.00,,,0.00,WUHU21623XXSP,2013-05-27 09:41:00,
2013-05-27 05:47:00,55.0,43.4,30.20,WSW,247,0.0,0.0,65,0.00,,,0.00,WUHU21623XXSP,2013-05-27 09:47:00,
2013-05-27 05:54:00,55.0,43.4,30.20,SW,224,0.0,0.0,65,0.00,,,0.00,WUHU21623XXSP,2013-05-27 09:54:00,
2013-05-27 06:01:00,55.0,43.4,30.20,WSW,247,0.0,0.0,65,0.00,,,0.00,WUHU21623XXSP,2013-05-27 10:01:00,
2013-05-27 06:06:00,55.0,43.8,30.20,WSW,247,0.0,0.0,66,0.00,,,0.00,WUHU21623XXSP,2013-05-27 10:06:00,
2013-05-27 06:13:00,55.0,43.8,30.20,WSW,247,0.0,0.0,66,0.00,,,0.00,WUHU21623XXSP,2013-05-27 10:13:00,
2013-05-27 06:19:00,55.2,43.6,30.20,SW,224,0.0,0.0,65,0.00,,,0.00,WUHU21623XXSP,2013-05-27 10:19:00,
2013-05-27 06:26:00,55.2,43.6,30.20,WSW,247,1.1,1.1,65,0.00,,,0.00,WUHU21623XXSP,2013-05-27 10:26:00,
2013-05-27 06:32:00,55.2,43.6,30.20,SW,224,0.0,1.1,65,0.00,,,0.00,WUHU21623XXSP,2013-05-27 10:32:00,
2013-05-27 06:39:00,55.4,43.6,30.20,WSW,247,0.8,1.3,65,0.00,,,0.00,WUHU21623XXSP,2013-05-27 10:39:00,
2013-05-27 06:45:00,55.6,43.5,30.20,SW,224,0.0,1.3,64,0.00,,,0.00,WUHU21623XXSP,2013-05-27 10:45:00,
2013-05-27 06:51:00,55.8,43.5,30.20,WSW,247,0.0,1.1,64,0.00,,,0.00,WUHU21623XXSP,2013-05-27 10:51:00,
2013-05-27 06:58:00,55.8,43.7,30.20,WSW,247,1.3,1.3,64,0.00,,,0.00,WUHU21623XXSP,2013-05-27 10:58:00,
2013-05-27 07:04:00,55.9,43.9,30.21,South,179,2.6,2.6,63,0.00,,,0.00,WUHU21623XXSP,2013-05-27 11:04:00,
2013-05-27 07:10:00,55.9,43.5,30.21,West,269,0.8,2.6,63,0.00,,,0.00,WUHU21623XXSP,2013-05-27 11:10:00,
2013-05-27 07:15:00,56.1,43.6,30.21,WSW,247,1.9,1.9,63,0.00,,,0.00,WUHU21623XXSP,2013-05-27 11:15:00,
2013-05-27 07:22:00,56.1,43.6,30.21,WSW,247,1.3,2.6,63,0.00,,,0.00,WUHU21623XXSP,2013-05-27 11:22:00,
2013-05-27 07:28:00,56.1,43.6,30.22,WSW,247,2.2,2.6,63,0.00,,,0.00,WUHU21623XXSP,2013-05-27 11:28:00,
2013-05-27 07:34:00,56.5,44.4,30.21,SW,224,1.6,2.6,64,0.00,,,0.00,WUHU21623XXSP,2013-05-27 11:34:00,
2013-05-27 07:41:00,56.5,44.4,30.21,SW,224,2.2,3.0,64,0.00,,,0.00,WUHU21623XXSP,2013-05-27 11:41:00,
2013-05-27 07:47:00,56.5,44.4,30.21,WSW,247,2.4,3.0,64,0.00,,,0.00,WUHU21623XXSP,2013-05-27 11:47:00,
2013-05-27 07:54:00,56.8,44.7,30.22,SW,224,2.6,2.6,64,0.00,,,0.00,WUHU21623XXSP,2013-05-27 11:54:00,
2013-05-27 08:00:00,56.8,44.3,30.22,WSW,247,1.9,3.0,63,0.00,,,0.00,WUHU21623XXSP,2013-05-27 12:00:00,
2013-05-27 08:07:00,56.8,44.0,30.22,SW,224,4.3,4.3,62,0.00,,,0.00,WUHU21623XXSP,2013-05-27 12:07:00,
2013-05-27 08:13:00,56.8,44.0,30.22,WNW,292,3.0,4.3,62,0.00,,,0.00,WUHU21623XXSP,2013-05-27 12:13:00,
2013-05-27 08:20:00,57.0,43.7,30.22,SW,224,5.9,5.9,61,0.00,,,0.00,WUHU21623XXSP,2013-05-27 12:20:00,
2013-05-27 08:26:00,57.0,43.3,30.22,SW,224,2.6,5.9,60,0.00,,,0.00,WUHU21623XXSP,2013-05-27 12:26:00,
2013-05-27 08:32:00,57.0,43.3,30.22,SSW,202,4.3,4.3,60,0.00,,,0.00,WUHU21623XXSP,2013-05-27 12:32:00,
2013-05-27 08:39:00,57.0,42.9,30.22,WSW,247,7.0,7.0,59,0.00,,,0.00,WUHU21623XXSP,2013-05-27 12:39:00,
2013-05-27 08:45:00,57.4,42.7,30.22,SSW,202,1.9,7.0,58,0.00,,,0.00,WUHU21623XXSP,2013-05-27 12:45:00,
2013-05-27 08:52:00,57.6,42.4,30.22,SW,224,3.5,3.5,57,0.00,,,0.00,WUHU21623XXSP,2013-05-27 12:52:00,
2013-05-27 08:58:00,57.7,42.6,30.21,WSW,247,1.3,5.4,57,0.00,,,0.00,WUHU21623XXSP,2013-05-27 12:58:00,
2013-05-27 09:05:00,57.9,42.8,30.22,SSW,202,2.4,2.4,57,0.00,,,0.00,WUHU21623XXSP,2013-05-27 13:05:00,
2013-05-27 09:11:00,57.9,42.8,30.21,SSE,157,1.9,2.4,57,0.00,,,0.00,WUHU21623XXSP,2013-05-27 13:11:00,
2013-05-27 09:18:00,58.5,42.8,30.21,SW,224,3.2,3.2,56,0.00,,,0.00,WUHU21623XXSP,2013-05-27 13:18:00,
2013-05-27 09:24:00,58.6,42.9,30.21,SW,224,3.5,3.5,56,0.00,,,0.00,WUHU21623XXSP,2013-05-27 13:24:00,
2013-05-27 09:30:00,58.8,43.1,30.21,South,179,3.5,3.5,56,0.00,,,0.00,WUHU21623XXSP,2013-05-27 13:30:00,
2013-05-27 09:37:00,59.2,43.4,30.20,West,269,1.6,3.5,56,0.00,,,0.00,WUHU21623XXSP,2013-05-27 13:37:00,
2013-05-27 09:43:00,59.5,43.4,30.21,SW,224,2.4,3.5,55,0.00,,,0.00,WUHU21623XXSP,2013-05-27 13:43:00,
2013-05-27 09:50:00,59.7,43.5,30.21,West,269,1.3,3.5,55,0.00,,,0.00,WUHU21623XXSP,2013-05-27 13:50:00,
2013-05-27 09:56:00,60.1,43.3,30.21,SW,224,4.8,4.8,54,0.00,,,0.00,WUHU21623XXSP,2013-05-27 13:56:00,
2013-05-27 10:03:00,60.4,43.7,30.22,WSW,247,2.4,4.8,54,0.00,,,0.00,WUHU21623XXSP,2013-05-27 14:03:00,
2013-05-27 10:09:00,60.6,44.3,30.21,WSW,247,5.6,11.0,55,0.00,,,0.00,WUHU21623XXSP,2013-05-27 14:09:00,
2013-05-27 10:15:00,61.0,44.7,30.22,SW,224,5.2,11.0,55,0.00,,,0.00,WUHU21623XXSP,2013-05-27 14:15:00,
2013-05-27 10:22:00,61.3,44.2,30.21,South,179,5.4,8.3,54,0.00,,,0.00,WUHU21623XXSP,2013-05-27 14:22:00,
2013-05-27 10:28:00,61.7,44.7,30.21,NNW,337,1.3,8.3,54,0.00,,,0.00,WUHU21623XXSP,2013-05-27 14:28:00,
2013-05-27 10:35:00,62.4,45.5,30.21,WSW,247,2.4,3.7,54,0.00,,,0.00,WUHU21623XXSP,2013-05-27 14:35:00,
2013-05-27 10:41:00,63.1,46.6,30.20,WSW,247,4.6,4.6,55,0.00,,,0.00,WUHU21623XXSP,2013-05-27 14:41:00,
2013-05-27 10:48:00,64.2,47.6,30.20,SW,224,0.0,4.6,55,0.00,,,0.00,WUHU21623XXSP,2013-05-27 14:48:00,
2013-05-27 10:54:00,65.7,47.6,30.20,SW,224,8.0,8.0,52,0.00,,,0.00,WUHU21623XXSP,2013-05-27 14:54:00,
2013-05-27 11:01:00,66.6,47.4,30.21,WSW,247,2.4,8.0,50,0.00,,,0.00,WUHU21623XXSP,2013-05-27 15:01:00,
2013-05-27 11:07:00,67.8,47.4,30.20,SSW,202,4.6,4.6,48,0.00,,,0.00,WUHU21623XXSP,2013-05-27 15:07:00,
2013-05-27 11:13:00,69.1,47.0,30.20,SSW,202,7.0,7.0,46,0.00,,,0.00,WUHU21623XXSP,2013-05-27 15:13:00,
2013-05-27 11:20:00,70.0,47.8,30.20,WSW,247,7.0,7.0,46,0.00,,,0.00,WUHU21623XXSP,2013-05-27 15:20:00,
2013-05-27 11:26:00,70.7,48.2,30.20,West,269,1.9,7.0,45,0.00,,,0.00,WUHU21623XXSP,2013-05-27 15:26:00,
2013-05-27 11:33:00,71.4,48.7,30.20,NW,314,5.9,6.5,45,0.00,,,0.00,WUHU21623XXSP,2013-05-27 15:33:00,
2013-05-27 11:39:00,72.3,47.9,30.20,WSW,247,3.0,6.7,42,0.00,,,0.00,WUHU21623XXSP,2013-05-27 15:39:00,
2013-05-27 11:46:00,72.7,48.2,30.19,SW,224,6.1,6.7,42,0.00,,,0.00,WUHU21623XXSP,2013-05-27 15:46:00,
2013-05-27 11:52:00,73.8,48.0,30.19,WSW,247,4.6,6.1,40,0.00,,,0.00,WUHU21623XXSP,2013-05-27 15:52:00,
2013-05-27 11:58:00,74.5,48.6,30.18,WSW,247,4.3,6.1,40,0.00,,,0.00,WUHU21623XXSP,2013-05-27 15:58:00,
2013-05-27 12:05:00,75.0,49.1,30.18,SW,224,6.1,6.1,40,0.00,,,0.00,WUHU21623XXSP,2013-05-27 16:05:00,
2013-05-27 12:11:00,75.4,48.7,30.18,WSW,247,2.2,6.1,39,0.00,,,0.00,WUHU21623XXSP,2013-05-27 16:11:00,
2013-05-27 12:18:00,75.9,49.8,30.18,West,269,4.8,5.6,40,0.00,,,0.00,WUHU21623XXSP,2013-05-27 16:18:00,
2013-05-27 12:24:00,76.3,49.3,30.18,SSW,202,13.7,13.7,38,0.00,,,0.00,WUHU21623XXSP,2013-05-27 16:24:00,
2013-05-27 12:31:00,76.6,49.1,30.18,SW,224,7.0,13.7,38,0.00,,,0.00,WUHU21623XXSP,2013-05-27 16:31:00,
2013-05-27 12:37:00,76.6,49.1,30.18,WSW,247,9.4,9.4,38,0.00,,,0.00,WUHU21623XXSP,2013-05-27 16:37:00,
2013-05-27 12:43:00,76.8,49.1,30.18,WSW,247,3.0,9.4,38,0.00,,,0.00,WUHU21623XXSP,2013-05-27 16:43:00,
2013-05-27 12:50:00,76.8,48.5,30.17,SSW,202,7.6,12.8,37,0.00,,,0.00,WUHU21623XXSP,2013-05-27 16:50:00,
2013-05-27 12:56:00,77.5,48.0,30.17,SSW,202,7.6,12.8,36,0.00,,,0.00,WUHU21623XXSP,2013-05-27 16:56:00,
2013-05-27 13:03:00,77.7,48.5,30.16,SW,224,5.6,10.7,36,0.00,,,0.00,WUHU21623XXSP,2013-05-27 17:03:00,
2013-05-27 13:09:00,78.1,48.0,30.16,WSW,247,2.6,6.1,35,0.00,,,0.00,WUHU21623XXSP,2013-05-27 17:09:00,
2013-05-27 13:16:00,78.4,48.3,30.16,WSW,247,4.1,5.6,35,0.00,,,0.00,WUHU21623XXSP,2013-05-27 17:16:00,
2013-05-27 13:22:00,78.4,49.1,30.16,WSW,247,6.1,6.1,36,0.00,,,0.00,WUHU21623XXSP,2013-05-27 17:22:00,
2013-05-27 13:28:00,78.6,48.5,30.15,SSW,202,5.2,6.1,35,0.00,,,0.00,WUHU21623XXSP,2013-05-27 17:28:00,
2013-05-27 13:35:00,78.6,47.7,30.15,SW,224,8.0,12.6,33,0.00,,,0.00,WUHU21623XXSP,2013-05-27 17:35:00,
2013-05-27 13:41:00,77.5,47.6,30.15,South,179,5.2,12.6,35,0.00,,,0.00,WUHU21623XXSP,2013-05-27 17:41:00,
2013-05-27 13:48:00,76.8,47.0,30.15,SSW,202,14.3,14.3,35,0.00,,,0.00,WUHU21623XXSP,2013-05-27 17:48:00,
2013-05-27 13:54:00,75.9,46.9,30.15,South,179,10.2,14.3,36,0.00,,,0.00,WUHU21623XXSP,2013-05-27 17:54:00,
2013-05-27 14:01:00,75.6,47.3,30.15,South,179,4.3,10.2,37,0.00,,,0.00,WUHU21623XXSP,2013-05-27 18:01:00,
2013-05-27 14:07:00,75.0,47.2,30.15,WSW,247,5.9,10.2,37,0.00,,,0.00,WUHU21623XXSP,2013-05-27 18:07:00,
2013-05-27 14:14:00,74.1,46.0,30.15,WSW,247,10.2,10.2,37,0.00,,,0.00,WUHU21623XXSP,2013-05-27 18:14:00,
2013-05-27 14:20:00,73.2,45.6,30.15,South,179,7.2,11.3,37,0.00,,,0.00,WUHU21623XXSP,2013-05-27 18:20:00,
2013-05-27 14:26:00,72.7,45.5,30.14,SW,224,12.8,12.8,38,0.00,,,0.00,WUHU21623XXSP,2013-05-27 18:26:00,
2013-05-27 14:33:00,72.1,45.9,30.14,WSW,247,1.6,12.8,39,0.00,,,0.00,WUHU21623XXSP,2013-05-27 18:33:00,
2013-05-27 14:39:00,72.0,45.6,30.14,South,179,10.7,10.7,39,0.00,,,0.00,WUHU21623XXSP,2013-05-27 18:39:00,
2013-05-27 14:48:00,71.2,44.2,30.15,SE,134,5.6,10.7,38,0.00,,,0.00,WUHU21623XXSP,2013-05-27 18:48:00,
2013-05-27 14:54:00,70.7,43.0,30.14,SSW,202,10.0,20.2,37,0.00,,,0.00,WUHU21623XXSP,2013-05-27 18:54:00,
2013-05-27 15:01:00,70.0,42.4,30.13,South,179,5.6,10.0,37,0.00,,,0.00,WUHU21623XXSP,2013-05-27 19:01:00,
2013-05-27 15:07:00,69.6,42.8,30.14,SW,224,6.5,9.4,38,0.00,,,0.00,WUHU21623XXSP,2013-05-27 19:07:00,
2013-05-27 15:14:00,69.1,43.0,30.13,SW,224,10.0,11.8,39,0.00,,,0.00,WUHU21623XXSP,2013-05-27 19:14:00,
2013-05-27 15:20:00,68.7,43.4,30.13,South,179,6.5,11.8,40,0.00,,,0.00,WUHU21623XXSP,2013-05-27 19:20:00,
2013-05-27 15:27:00,68.7,43.4,30.13,South,179,12.6,12.6,40,0.00,,,0.00,WUHU21623XXSP,2013-05-27 19:27:00,
2013-05-27 15:33:00,68.5,43.9,30.13,South,179,15.8,15.8,41,0.00,,,0.00,WUHU21623XXSP,2013-05-27 19:33:00,
2013-05-27 15:40:00,68.2,43.6,30.12,SSW,202,2.4,15.8,41,0.00,,,0.00,WUHU21623XXSP,2013-05-27 19:40:00,
2013-05-27 15:46:00,68.2,44.1,30.12,SSW,202,12.8,12.8,42,0.00,,,0.00,WUHU21623XXSP,2013-05-27 19:46:00,
2013-05-27 15:52:00,68.2,44.1,30.12,SW,224,11.0,12.8,42,0.00,,,0.00,WUHU21623XXSP,2013-05-27 19:52:00,
2013-05-27 15:59:00,68.2,44.7,30.12,West,269,2.6,11.5,43,0.00,,,0.00,WUHU21623XXSP,2013-05-27 19:59:00,
2013-05-27 16:05:00,68.0,44.6,30.12,SW,224,7.8,12.6,43,0.00,,,0.00,WUHU21623XXSP,2013-05-27 20:05:00,
2013-05-27 16:12:00,67.8,45.0,30.12,SW,224,4.6,8.0,44,0.00,,,0.00,WUHU21623XXSP,2013-05-27 20:12:00,
2013-05-27 16:18:00,67.8,45.0,30.12,South,179,11.5,14.8,44,0.00,,,0.00,WUHU21623XXSP,2013-05-27 20:18:00,
2013-05-27 16:25:00,67.6,44.9,30.12,SW,224,11.3,14.8,44,0.00,,,0.00,WUHU21623XXSP,2013-05-27 20:25:00,
2013-05-27 16:31:00,67.3,44.7,30.12,WSW,247,11.0,11.3,44,0.00,,,0.00,WUHU21623XXSP,2013-05-27 20:31:00,
2013-05-27 16:37:00,67.3,44.5,30.11,SSW,202,11.5,11.5,45,0.00,,,0.00,WUHU21623XXSP,2013-05-27 20:37:00,
2013-05-27 16:44:00,67.3,45.1,30.11,South,179,8.3,13.4,45,0.00,,,0.00,WUHU21623XXSP,2013-05-27 20:44:00,
2013-05-27 16:50:00,66.9,44.8,30.11,SSW,202,13.4,13.4,45,0.00,,,0.00,WUHU21623XXSP,2013-05-27 20:50:00,
2013-05-27 16:57:00,66.9,45.4,30.11,WSW,247,5.4,13.4,46,0.00,,,0.00,WUHU21623XXSP,2013-05-27 20:57:00,
2013-05-27 17:03:00,66.7,45.2,30.11,SSW,202,15.6,15.6,46,0.00,,,0.00,WUHU21623XXSP,2013-05-27 21:03:00,
2013-05-27 17:09:00,66.7,45.2,30.11,SSW,202,20.6,20.6,46,0.00,,,0.00,WUHU21623XXSP,2013-05-27 21:09:00,
2013-05-27 17:16:00,66.6,45.1,30.11,SSW,202,7.2,20.6,46,0.00,,,0.00,WUHU21623XXSP,2013-05-27 21:16:00,
2013-05-27 17:22:00,66.6,45.7,30.10,SW,224,3.7,7.2,47,0.00,,,0.00,WUHU21623XXSP,2013-05-27 21:22:00,
2013-05-27 17:29:00,66.6,45.7,30.11,South,179,3.7,12.6,47,0.00,,,0.00,WUHU21623XXSP,2013-05-27 21:29:00,
2013-05-27 17:35:00,66.6,45.7,30.11,SSW,202,4.6,12.6,47,0.00,,,0.00,WUHU21623XXSP,2013-05-27 21:35:00,
2013-05-27 17:42:00,66.4,46.1,30.11,SSW,202,4.3,5.9,48,0.00,,,0.00,WUHU21623XXSP,2013-05-27 21:42:00,
2013-05-27 17:48:00,66.4,46.7,30.11,SSW,202,5.4,6.1,49,0.00,,,0.00,WUHU21623XXSP,2013-05-27 21:48:00,
2013-05-27 17:54:00,66.4,47.3,30.10,South,179,5.2,5.4,50,0.00,,,0.00,WUHU21623XXSP,2013-05-27 21:54:00,
2013-05-27 18:01:00,66.4,47.3,30.10,SSW,202,6.5,9.7,50,0.00,,,0.00,WUHU21623XXSP,2013-05-27 22:01:00,
2013-05-27 18:07:00,66.2,47.6,30.10,South,179,2.7,6.5,51,0.00,,,0.00,WUHU21623XXSP,2013-05-27 22:07:00,
2013-05-27 18:14:00,66.0,47.4,30.10,WSW,247,7.6,7.6,51,0.00,,,0.00,WUHU21623XXSP,2013-05-27 22:14:00,
2013-05-27 18:21:00,66.0,47.9,30.10,SW,224,3.0,8.9,52,0.00,,,0.00,WUHU21623XXSP,2013-05-27 22:21:00,
2013-05-27 18:27:00,65.8,47.7,30.10,SSW,202,2.2,6.1,52,0.00,,,0.00,WUHU21623XXSP,2013-05-27 22:27:00,
2013-05-27 18:33:00,65.7,48.0,30.10,SW,224,2.4,9.1,53,0.00,,,0.00,WUHU21623XXSP,2013-05-27 22:33:00,
2013-05-27 18:40:00,65.5,47.9,30.10,South,179,7.8,10.7,53,0.00,,,0.00,WUHU21623XXSP,2013-05-27 22:40:00,
2013-05-27 18:46:00,65.3,47.7,30.10,SW,224,5.4,10.7,53,0.00,,,0.00,WUHU21623XXSP,2013-05-27 22:46:00,
2013-05-27 18:52:00,65.1,48.0,30.10,WSW,247,3.7,5.4,54,0.00,,,0.00,WUHU21623XXSP,2013-05-27 22:52:00,
2013-05-27 18:59:00,64.9,48.3,30.11,SSW,202,4.8,4.8,55,0.00,,,0.00,WUHU21623XXSP,2013-05-27 22:59:00,
2013-05-27 19:06:00,64.8,48.1,30.11,SSW,202,3.0,4.8,55,0.00,,,0.00,WUHU21623XXSP,2013-05-27 23:06:00,
2013-05-27 19:12:00,64.6,48.4,30.10,South,179,3.2,4.8,56,0.00,,,0.00,WUHU21623XXSP,2013-05-27 23:12:00,
2013-05-27 19:18:00,64.2,48.1,30.10,South,179,3.5,10.0,56,0.00,,,0.00,WUHU21623XXSP,2013-05-27 23:18:00,
2013-05-27 19:25:00,64.2,48.1,30.11,SSE,166,5.5,6.5,56,0.00,,,0.00,WUHU21623XXSP,2013-05-27 23:25:00,
2013-05-27 19:31:00,64.0,48.4,30.10,SSW,202,1.9,6.5,57,0.00,,,0.00,WUHU21623XXSP,2013-05-27 23:31:00,
2013-05-27 19:38:00,64.0,48.4,30.11,South,179,8.6,8.6,57,0.00,,,0.00,WUHU21623XXSP,2013-05-27 23:38:00,
2013-05-27 19:44:00,64.0,48.4,30.11,SSW,202,3.5,8.6,57,0.00,,,0.00,WUHU21623XXSP,2013-05-27 23:44:00,
2013-05-27 19:50:00,64.0,48.4,30.11,South,179,3.0,4.6,57,0.00,,,0.00,WUHU21623XXSP,2013-05-27 23:50:00,
2013-05-27 19:57:00,63.7,48.6,30.10,South,179,1.9,4.6,58,0.00,,,0.00,WUHU21623XXSP,2013-05-27 23:57:00,
2013-05-27 20:03:00,63.7,48.6,30.10,SSW,202,0.0,1.9,58,0.00,,,0.00,WUHU21623XXSP,2013-05-28 00:03:00,
2013-05-27 20:10:00,64.0,48.9,30.11,South,179,1.9,1.9,58,0.00,,,0.00,WUHU21623XXSP,2013-05-28 00:10:00,
2013-05-27 20:16:00,64.0,48.9,30.11,SSW,202,1.6,1.9,58,0.00,,,0.00,WUHU21623XXSP,2013-05-28 00:16:00,
2013-05-27 20:23:00,63.9,48.7,30.11,SSE,157,1.1,2.6,58,0.00,,,0.00,WUHU21623XXSP,2013-05-28 00:23:00,
2013-05-27 20:29:00,64.0,48.9,30.11,SSE,157,1.1,1.3,58,0.00,,,0.00,WUHU21623XXSP,2013-05-28 00:29:00,
2013-05-27 20:35:00,63.9,49.2,30.11,South,179,1.6,1.6,59,0.00,,,0.00,WUHU21623XXSP,2013-05-28 00:35:00,
2013-05-27 20:42:00,63.7,49.0,30.11,South,179,1.3,1.6,59,0.00,,,0.00,WUHU21623XXSP,2013-05-28 00:42:00,
2013-05-27 20:48:00,63.7,49.0,30.12,SSE,157,0.0,1.6,59,0.00,,,0.00,WUHU21623XXSP,2013-05-28 00:48:00,
2013-05-27 20:55:00,63.7,49.5,30.12,SSE,157,0.0,0.0,60,0.00,,,0.00,WUHU21623XXSP,2013-05-28 00:55:00,
2013-05-27 21:01:00,63.7,49.5,30.12,SE,134,1.1,1.1,60,0.00,,,0.00,WUHU21623XXSP,2013-05-28 01:01:00,
2013-05-27 21:08:00,63.5,49.4,30.12,SSE,157,1.1,1.3,60,0.00,,,0.00,WUHU21623XXSP,2013-05-28 01:08:00,
2013-05-27 21:14:00,63.5,49.4,30.12,SSE,157,1.1,1.3,60,0.00,,,0.00,WUHU21623XXSP,2013-05-28 01:14:00,
2013-05-27 21:21:00,63.5,49.4,30.12,South,179,1.6,1.6,60,0.00,,,0.00,WUHU21623XXSP,2013-05-28 01:21:00,
2013-05-27 21:27:00,63.3,49.2,30.13,SSE,157,1.6,1.6,60,0.00,,,0.00,WUHU21623XXSP,2013-05-28 01:27:00,
2013-05-27 21:33:00,63.3,49.2,30.13,SSE,157,1.1,1.6,60,0.00,,,0.00,WUHU21623XXSP,2013-05-28 01:33:00,
2013-05-27 21:40:00,63.1,49.5,30.13,South,179,1.1,1.6,61,0.00,,,0.00,WUHU21623XXSP,2013-05-28 01:40:00,
2013-05-27 21:46:00,63.1,49.5,30.13,South,179,0.0,1.6,61,0.00,,,0.00,WUHU21623XXSP,2013-05-28 01:46:00,
2013-05-27 21:53:00,63.1,49.5,30.13,SSW,202,0.0,0.0,61,0.00,,,0.00,WUHU21623XXSP,2013-05-28 01:53:00,
2013-05-27 21:59:00,63.1,49.9,30.13,SSW,202,0.0,0.0,62,0.00,,,0.00,WUHU21623XXSP,2013-05-28 01:59:00,
2013-05-27 22:06:00,63.0,49.7,30.13,SSW,202,0.0,0.8,62,0.00,,,0.00,WUHU21623XXSP,2013-05-28 02:06:00,
2013-05-27 22:12:00,62.8,49.5,30.13,SSW,202,1.1,1.3,62,0.00,,,0.00,WUHU21623XXSP,2013-05-28 02:12:00,
2013-05-27 22:18:00,62.6,49.8,30.13,SE,134,0.0,1.3,63,0.00,,,0.00,WUHU21623XXSP,2013-05-28 02:18:00,
2013-05-27 22:25:00,62.4,49.6,30.14,SSE,157,0.0,0.0,63,0.00,,,0.00,WUHU21623XXSP,2013-05-28 02:25:00,
2013-05-27 22:31:00,62.6,49.8,30.13,SE,134,0.0,0.0,63,0.00,,,0.00,WUHU21623XXSP,2013-05-28 02:31:00,
2013-05-27 22:38:00,62.6,49.8,30.13,SSE,157,0.0,0.0,63,0.00,,,0.00,WUHU21623XXSP,2013-05-28 02:38:00,
2013-05-27 22:44:00,62.4,50.1,30.13,SSE,157,0.0,0.0,64,0.00,,,0.00,WUHU21623XXSP,2013-05-28 02:44:00,
2013-05-27 22:51:00,62.4,50.1,30.13,South,179,0.0,0.0,64,0.00,,,0.00,WUHU21623XXSP,2013-05-28 02:51:00,
2013-05-27 22:57:00,62.4,50.1,30.13,SSW,202,0.0,0.0,64,0.00,,,0.00,WUHU21623XXSP,2013-05-28 02:57:00,
2013-05-27 23:04:00,62.4,50.1,30.14,SSW,202,0.0,0.8,64,0.00,,,0.00,WUHU21623XXSP,2013-05-28 03:04:00,
2013-05-27 23:10:00,62.2,49.9,30.14,SSW,202,0.0,0.8,64,0.00,,,0.00,WUHU21623XXSP,2013-05-28 03:10:00,
2013-05-27 23:17:00,62.2,49.9,30.15,SSW,202,0.0,0.0,64,0.00,,,0.00,WUHU21623XXSP,2013-05-28 03:17:00,
2013-05-27 23:23:00,62.2,49.9,30.14,SSW,202,0.0,0.0,64,0.00,,,0.00,WUHU21623XXSP,2013-05-28 03:23:00,
2013-05-27 23:29:00,62.1,49.7,30.15,South,179,0.0,0.0,63,0.00,,,0.00,WUHU21623XXSP,2013-05-28 03:29:00,
2013-05-27 23:36:00,61.7,49.4,30.15,SSE,157,0.0,0.0,64,0.00,,,0.00,WUHU21623XXSP,2013-05-28 03:36:00,
2013-05-27 23:42:00,61.7,49.4,30.15,South,179,0.0,0.0,64,0.00,,,0.00,WUHU21623XXSP,2013-05-28 03:42:00,
2013-05-27 23:49:00,61.7,49.4,30.15,SW,224,0.0,0.0,64,0.00,,,0.00,WUHU21623XXSP,2013-05-28 03:49:00,
2013-05-27 23:55:00,61.9,49.6,30.15,SW,224,0.0,0.0,64,0.00,,,0.00,WUHU21623XXSP,2013-05-28 03:55:00,